Time;durP1;ratioP1;P1;durP2;ratioP2;P2;SDS_P1;SDS_P2;PMS_P1;PMS_P2;Temp;Humidity;BMP_temperature;BMP_pressure;BME280_temperature;BME280_humidity;BME280_pressure;Samples;Min_cycle;Max_cycle;Signal;HPM_P1;HPM_P2
2021/03/10 00:00:26;;;;;;;22.50;14.83;;;6.40;99.90;;;;;;5099465;28;20457;-66
2021/03/10 00:02:53;;;;;;;23.60;16.33;;;6.40;99.90;;;;;;5084437;28;20501;-64
2021/03/10 00:05:20;;;;;;;26.07;16.93;;;6.40;99.90;;;;;;5088851;27;20562;-64
2021/03/10 00:07:47;;;;;;;26.60;17.60;;;6.40;99.90;;;;;;5109174;28;20471;-64
2021/03/10 00:10:14;;;;;;;24.67;17.53;;;6.40;99.90;;;;;;5108445;28;20948;-66
2021/03/10 00:12:41;;;;;;;27.60;18.20;;;6.50;99.90;;;;;;5100421;28;20462;-64
2021/03/10 00:15:09;;;;;;;21.30;15.43;;;6.50;99.90;;;;;;5102793;27;20556;-65
2021/03/10 00:17:36;;;;;;;23.40;16.53;;;6.50;99.90;;;;;;5124633;27;20436;-64
2021/03/10 00:20:04;;;;;;;28.93;19.27;;;6.50;99.90;;;;;;5119685;27;20464;-63
2021/03/10 00:22:30;;;;;;;25.00;17.47;;;6.50;99.90;;;;;;5109358;28;20445;-65
2021/03/10 00:24:58;;;;;;;25.30;17.87;;;6.50;99.90;;;;;;5093224;27;20459;-64
2021/03/10 00:27:24;;;;;;;23.47;17.63;;;6.50;99.90;;;;;;5129551;27;20505;-64
2021/03/10 00:29:52;;;;;;;24.20;17.97;;;6.50;99.90;;;;;;5126428;27;21068;-64
2021/03/10 00:32:19;;;;;;;25.83;18.00;;;6.50;99.90;;;;;;5109192;28;20950;-64
2021/03/10 00:34:47;;;;;;;25.47;16.70;;;6.50;99.90;;;;;;5109172;28;20557;-64
2021/03/10 00:37:13;;;;;;;23.67;16.07;;;6.60;99.90;;;;;;5107181;28;20460;-65
2021/03/10 00:39:40;;;;;;;25.20;16.20;;;6.50;99.90;;;;;;5119273;27;20466;-65
2021/03/10 00:42:08;;;;;;;29.13;18.03;;;6.60;99.90;;;;;;5117177;27;20547;-65
2021/03/10 00:44:34;;;;;;;28.33;16.40;;;6.50;99.90;;;;;;5092706;28;20449;-64
2021/03/10 00:47:01;;;;;;;27.00;15.57;;;6.50;99.90;;;;;;5107503;28;20444;-63
2021/03/10 00:49:27;;;;;;;25.80;18.03;;;6.50;99.90;;;;;;5110186;28;20446;-64
2021/03/10 00:51:54;;;;;;;23.57;15.67;;;6.40;99.90;;;;;;5092581;28;20957;-64
2021/03/10 00:54:20;;;;;;;25.93;17.37;;;6.50;99.90;;;;;;5091432;28;20460;-66
2021/03/10 00:56:47;;;;;;;26.00;17.73;;;6.50;99.90;;;;;;5109557;28;20471;-64
2021/03/10 00:59:14;;;;;;;23.73;15.67;;;6.50;99.90;;;;;;5113296;28;20444;-67
2021/03/10 01:01:41;;;;;;;23.70;16.63;;;6.50;99.90;;;;;;5095568;28;20490;-64
2021/03/10 01:04:07;;;;;;;26.17;18.00;;;6.50;99.90;;;;;;5113678;28;20463;-65
2021/03/10 01:06:34;;;;;;;30.87;17.50;;;6.60;99.90;;;;;;5092286;27;20494;-66
2021/03/10 01:09:00;;;;;;;32.33;19.13;;;6.60;99.90;;;;;;5113659;27;20475;-65
2021/03/10 01:11:27;;;;;;;29.00;18.00;;;6.60;99.90;;;;;;5120233;27;20441;-64
2021/03/10 01:13:54;;;;;;;24.80;18.53;;;6.70;99.90;;;;;;5094733;28;20451;-64
2021/03/10 01:16:21;;;;;;;30.73;19.57;;;6.60;99.90;;;;;;5110429;28;20448;-65
2021/03/10 01:18:48;;;;;;;30.90;20.40;;;6.60;99.90;;;;;;5115528;27;20907;-66
2021/03/10 01:21:14;;;;;;;32.23;21.27;;;6.60;99.90;;;;;;5094259;28;20551;-67
2021/03/10 01:23:41;;;;;;;36.47;24.13;;;6.60;99.90;;;;;;5114159;27;20951;-65
2021/03/10 01:26:07;;;;;;;34.07;22.50;;;6.50;99.90;;;;;;5116136;27;20491;-65
2021/03/10 01:28:34;;;;;;;37.23;21.73;;;6.30;99.90;;;;;;5112591;28;20543;-65
2021/03/10 01:31:00;;;;;;;31.57;21.20;;;6.40;99.90;;;;;;5111373;28;20535;-67
2021/03/10 01:33:28;;;;;;;32.50;21.97;;;6.40;99.90;;;;;;5113987;28;20461;-66
2021/03/10 01:35:54;;;;;;;35.80;22.03;;;6.20;99.90;;;;;;5113539;27;20455;-64
2021/03/10 01:38:21;;;;;;;32.97;21.27;;;6.20;99.90;;;;;;5113278;28;21009;-64
2021/03/10 01:40:47;;;;;;;35.80;22.43;;;6.20;99.90;;;;;;5113104;27;20869;-66
2021/03/10 01:43:14;;;;;;;33.23;20.83;;;6.10;99.90;;;;;;5112930;27;20431;-64
2021/03/10 01:45:41;;;;;;;41.10;23.87;;;6.10;99.90;;;;;;5133933;27;20490;-64
2021/03/10 01:48:10;;;;;;;37.33;24.87;;;6.00;99.90;;;;;;5134353;27;20451;-65
2021/03/10 01:50:37;;;;;;;40.13;26.27;;;6.10;99.90;;;;;;5114961;28;20890;-65
2021/03/10 01:53:04;;;;;;;46.40;28.63;;;6.00;99.90;;;;;;5112749;28;20731;-64
2021/03/10 01:55:32;;;;;;;42.10;26.50;;;6.00;99.90;;;;;;5133487;27;20447;-66
2021/03/10 01:57:59;;;;;;;42.77;26.40;;;6.00;99.90;;;;;;5134298;27;20519;-66
2021/03/10 02:00:27;;;;;;;44.40;26.83;;;6.00;99.90;;;;;;5115722;27;20445;-64
2021/03/10 02:02:54;;;;;;;42.13;25.50;;;6.10;99.90;;;;;;5114572;28;20550;-65
2021/03/10 02:05:22;;;;;;;44.43;25.20;;;6.10;99.90;;;;;;5128595;27;20483;-65
2021/03/10 02:08:06;;;;;;;43.40;25.80;;;6.10;99.90;;;;;;5134099;27;20885;-66
2021/03/10 02:10:44;;;;;;;46.83;26.50;;;6.20;99.90;;;;;;5113253;28;20444;-64
2021/03/10 02:13:15;;;;;;;47.33;27.47;;;6.10;99.90;;;;;;5134009;27;20454;-65
2021/03/10 02:15:51;;;;;;;56.23;28.60;;;6.10;99.90;;;;;;5135033;27;20448;-66
2021/03/10 02:18:23;;;;;;;47.20;27.80;;;6.00;99.90;;;;;;5113105;27;20456;-67
2021/03/10 02:20:55;;;;;;;49.17;27.70;;;6.00;99.90;;;;;;5119368;28;21035;-65
2021/03/10 02:23:59;;;;;;;49.07;28.73;;;6.00;99.90;;;;;;5117639;27;20503;-64
2021/03/10 02:26:47;;;;;;;59.60;31.63;;;5.90;99.90;;;;;;5032633;28;20567;-65
2021/03/10 02:29:16;;;;;;;58.33;31.00;;;6.00;99.90;;;;;;5098565;28;20465;-64
2021/03/10 02:31:48;;;;;;;61.70;31.30;;;6.00;99.90;;;;;;5120198;27;20539;-64
2021/03/10 02:34:16;;;;;;;59.37;31.73;;;5.90;99.90;;;;;;5118179;27;20540;-65
2021/03/10 02:36:44;;;;;;;66.60;35.13;;;6.00;99.90;;;;;;5115312;27;20449;-65
2021/03/10 02:39:11;;;;;;;55.63;29.27;;;6.00;99.90;;;;;;5118911;27;20539;-64
2021/03/10 02:41:38;;;;;;;51.90;29.10;;;6.00;99.90;;;;;;5092174;27;20452;-65
2021/03/10 02:44:06;;;;;;;60.47;32.50;;;6.00;99.90;;;;;;5113231;28;20470;-65
2021/03/10 02:46:33;;;;;;;49.53;27.97;;;6.00;99.90;;;;;;5112915;27;20487;-66
2021/03/10 02:49:00;;;;;;;49.90;28.60;;;6.00;99.90;;;;;;5114711;27;20444;-66
2021/03/10 02:51:27;;;;;;;54.33;30.50;;;5.80;99.90;;;;;;5133072;27;20448;-64
2021/03/10 02:53:55;;;;;;;56.37;27.90;;;5.90;99.90;;;;;;5117823;27;20444;-67
2021/03/10 02:56:22;;;;;;;43.60;24.70;;;5.90;99.90;;;;;;5123668;27;20445;-64
2021/03/10 02:58:48;;;;;;;45.90;25.70;;;5.90;99.90;;;;;;5132007;27;20962;-65
2021/03/10 03:01:15;;;;;;;40.57;26.17;;;6.00;99.90;;;;;;5132001;27;20516;-65
2021/03/10 03:03:42;;;;;;;41.50;25.00;;;5.90;99.90;;;;;;5131722;27;20862;-64
2021/03/10 03:06:09;;;;;;;36.60;24.00;;;5.90;99.90;;;;;;5125316;27;20480;-64
2021/03/10 03:08:36;;;;;;;39.50;22.53;;;5.80;99.90;;;;;;5127201;27;20446;-66
2021/03/10 03:11:03;;;;;;;37.00;22.43;;;5.90;99.90;;;;;;5133236;27;20444;-64
2021/03/10 03:13:31;;;;;;;42.40;24.93;;;5.70;99.90;;;;;;5130538;27;20814;-63
2021/03/10 03:15:59;;;;;;;38.30;23.53;;;5.80;99.90;;;;;;5121989;27;20455;-64
2021/03/10 03:18:27;;;;;;;36.57;23.50;;;5.80;99.90;;;;;;5126247;27;20455;-64
2021/03/10 03:20:55;;;;;;;42.13;24.60;;;5.80;99.90;;;;;;5129804;27;20475;-66
2021/03/10 03:23:23;;;;;;;36.93;24.00;;;5.80;99.90;;;;;;5113171;27;20945;-63
2021/03/10 03:25:51;;;;;;;36.90;22.50;;;5.70;99.90;;;;;;5111793;28;20844;-66
2021/03/10 03:28:19;;;;;;;41.73;25.07;;;5.80;99.90;;;;;;5111715;28;21020;-64
2021/03/10 03:30:48;;;;;;;42.43;25.53;;;5.70;99.90;;;;;;5111265;28;20455;-63
2021/03/10 03:33:17;;;;;;;52.57;28.70;;;5.70;99.90;;;;;;5111207;28;20455;-63
2021/03/10 03:35:45;;;;;;;39.93;24.87;;;5.50;99.90;;;;;;5110084;28;20542;-63
2021/03/10 03:38:12;;;;;;;47.73;26.37;;;5.50;99.90;;;;;;5107739;27;20936;-63
2021/03/10 03:40:39;;;;;;;39.00;23.33;;;5.60;99.90;;;;;;5114375;27;20438;-63
2021/03/10 03:43:12;;;;;;;41.40;24.77;;;5.60;99.90;;;;;;5112232;27;20520;-63
2021/03/10 03:45:38;;;;;;;43.30;25.20;;;5.50;99.90;;;;;;5112111;28;20484;-64
2021/03/10 03:48:06;;;;;;;41.27;24.20;;;5.50;99.90;;;;;;5091502;28;20502;-63
2021/03/10 03:50:33;;;;;;;45.70;24.60;;;5.50;99.90;;;;;;5110639;28;20454;-63
2021/03/10 03:53:00;;;;;;;45.33;27.00;;;5.50;99.90;;;;;;5107231;28;20493;-63
2021/03/10 03:55:27;;;;;;;51.23;25.70;;;5.50;99.90;;;;;;5097487;28;20545;-65
2021/03/10 03:57:53;;;;;;;45.60;26.77;;;5.50;99.90;;;;;;5093286;28;20804;-64
2021/03/10 04:00:24;;;;;;;45.63;26.53;;;5.50;99.90;;;;;;5110967;28;20458;-66
2021/03/10 04:02:51;;;;;;;39.63;23.10;;;5.40;99.90;;;;;;5109882;28;20459;-66
2021/03/10 04:05:19;;;;;;;43.80;26.10;;;5.30;99.90;;;;;;5109018;28;20933;-63
2021/03/10 04:07:50;;;;;;;40.17;26.40;;;5.20;99.90;;;;;;5110255;28;21007;-63
2021/03/10 04:10:16;;;;;;;38.90;24.47;;;5.10;99.90;;;;;;5110065;28;20456;-64
2021/03/10 04:12:44;;;;;;;41.53;25.50;;;5.00;99.90;;;;;;5103938;28;20451;-63
2021/03/10 04:15:12;;;;;;;37.23;22.07;;;4.90;99.90;;;;;;5100513;28;20456;-63
2021/03/10 04:17:38;;;;;;;38.13;22.83;;;4.80;99.90;;;;;;5110652;28;20540;-63
2021/03/10 04:20:11;;;;;;;39.33;23.70;;;4.80;99.90;;;;;;5109195;28;20456;-63
2021/03/10 04:22:38;;;;;;;42.93;25.20;;;4.80;99.90;;;;;;5110214;28;20458;-64
2021/03/10 04:25:06;;;;;;;43.93;27.30;;;4.80;99.90;;;;;;5109853;28;20480;-63
2021/03/10 04:27:33;;;;;;;35.47;23.13;;;4.80;99.90;;;;;;5110202;28;20503;-64
2021/03/10 04:30:00;;;;;;;36.67;22.93;;;4.80;99.90;;;;;;5108779;28;20449;-64
2021/03/10 04:32:26;;;;;;;36.17;22.40;;;4.80;99.90;;;;;;5108239;28;20455;-63
2021/03/10 04:34:53;;;;;;;42.07;26.77;;;4.90;99.90;;;;;;5107871;28;20516;-64
2021/03/10 04:37:19;;;;;;;37.50;24.00;;;4.90;99.90;;;;;;5117955;27;20479;-63
2021/03/10 04:39:46;;;;;;;33.00;25.00;;;5.00;99.90;;;;;;5106659;28;20473;-64
2021/03/10 04:42:12;;;;;;;39.90;24.43;;;5.00;99.90;;;;;;5109438;28;20543;-64
2021/03/10 04:44:39;;;;;;;38.90;25.10;;;5.00;99.90;;;;;;5110556;28;20460;-64
2021/03/10 04:47:07;;;;;;;41.43;25.60;;;5.00;99.90;;;;;;5109731;28;20536;-65
2021/03/10 04:49:33;;;;;;;35.10;23.37;;;5.10;99.90;;;;;;5091091;28;20445;-63
2021/03/10 04:52:00;;;;;;;44.23;26.63;;;5.10;99.90;;;;;;5090101;28;20427;-65
2021/03/10 04:54:26;;;;;;;42.33;26.23;;;5.00;99.90;;;;;;5109578;28;20459;-64
2021/03/10 04:56:53;;;;;;;37.80;23.50;;;5.00;99.90;;;;;;5109826;28;20484;-66
2021/03/10 04:59:19;;;;;;;38.93;24.63;;;4.90;99.90;;;;;;5107894;28;20439;-65
2021/03/10 05:01:46;;;;;;;41.63;26.37;;;4.90;99.90;;;;;;5089970;28;20465;-64
2021/03/10 05:04:13;;;;;;;37.87;24.43;;;4.80;99.90;;;;;;5107934;28;20486;-65
2021/03/10 05:06:40;;;;;;;38.03;23.97;;;4.80;99.90;;;;;;5109160;28;20489;-64
2021/03/10 05:09:07;;;;;;;33.97;23.60;;;4.90;99.90;;;;;;5106368;28;20550;-66
2021/03/10 05:11:33;;;;;;;33.17;21.40;;;4.90;99.90;;;;;;5090910;28;20882;-47
2021/03/10 05:14:00;;;;;;;25.63;12.20;;;4.90;99.90;;;;;;5103306;28;20446;-48
2021/03/10 05:16:26;;;;;;;25.20;16.37;;;7.20;99.90;;;;;;5109634;28;20516;-51
2021/03/10 05:18:53;;;;;;;33.60;20.37;;;7.50;99.90;;;;;;5087811;28;20457;-62
2021/03/10 05:21:20;;;;;;;33.93;20.17;;;7.20;99.90;;;;;;5089846;28;20461;-63
2021/03/10 05:23:47;;;;;;;30.30;19.90;;;6.90;99.90;;;;;;5090288;28;20799;-64
2021/03/10 05:26:14;;;;;;;35.50;21.87;;;6.60;99.90;;;;;;5088630;28;20542;-60
2021/03/10 05:28:41;;;;;;;34.00;20.30;;;6.30;99.90;;;;;;5109559;28;21008;-63
2021/03/10 05:31:08;;;;;;;31.13;19.83;;;6.00;99.90;;;;;;5110007;28;20441;-62
2021/03/10 05:33:35;;;;;;;33.43;19.40;;;5.80;99.90;;;;;;5110323;28;20536;-62
2021/03/10 05:36:01;;;;;;;36.57;23.70;;;5.60;99.90;;;;;;5109993;28;20894;-62
2021/03/10 05:38:31;;;;;;;42.37;25.30;;;5.30;99.90;;;;;;5108851;28;20523;-63
2021/03/10 05:40:58;;;;;;;38.70;22.47;;;5.00;99.90;;;;;;5109868;28;20454;-63
2021/03/10 05:43:25;;;;;;;44.80;25.40;;;4.90;99.90;;;;;;5109190;28;20949;-64
2021/03/10 05:45:51;;;;;;;39.97;24.80;;;4.70;99.90;;;;;;5112830;28;20484;-62
2021/03/10 05:48:18;;;;;;;37.13;23.00;;;4.60;99.90;;;;;;5111951;28;20457;-64
2021/03/10 05:50:45;;;;;;;31.27;19.63;;;4.60;99.90;;;;;;5095407;28;20476;-61
2021/03/10 05:53:13;;;;;;;40.33;22.03;;;4.60;99.90;;;;;;5093812;28;20826;-62
2021/03/10 05:55:41;;;;;;;32.27;21.70;;;4.60;99.90;;;;;;5113337;28;21039;-62
2021/03/10 05:58:13;;;;;;;35.40;23.27;;;4.50;99.90;;;;;;5112203;28;20443;-65
2021/03/10 06:00:43;;;;;;;34.70;21.10;;;4.50;99.90;;;;;;5114615;28;20745;-62
2021/03/10 06:03:12;;;;;;;37.83;23.30;;;4.40;99.90;;;;;;5114857;28;20448;-62
2021/03/10 06:05:38;;;;;;;32.13;20.30;;;4.40;99.90;;;;;;5093739;28;20994;-63
2021/03/10 06:08:06;;;;;;;31.70;20.20;;;4.40;99.90;;;;;;5091115;28;20512;-62
2021/03/10 06:10:41;;;;;;;36.60;21.67;;;4.40;99.90;;;;;;5093431;28;20533;-63
2021/03/10 06:13:19;;;;;;;32.77;21.60;;;4.50;99.90;;;;;;5095018;28;20458;-62
2021/03/10 06:15:45;;;;;;;32.73;21.33;;;4.60;99.90;;;;;;5111883;28;20449;-61
2021/03/10 06:18:22;;;;;;;34.37;20.97;;;4.60;99.90;;;;;;5113074;28;20465;-62
2021/03/10 06:20:49;;;;;;;31.50;19.93;;;4.60;99.90;;;;;;5111747;28;20423;-61
2021/03/10 06:23:16;;;;;;;31.73;20.37;;;4.70;99.90;;;;;;5113414;28;20478;-62
2021/03/10 06:25:44;;;;;;;32.27;20.67;;;4.80;99.90;;;;;;5113094;28;20448;-61
2021/03/10 06:28:10;;;;;;;34.10;21.53;;;4.80;99.90;;;;;;5113768;28;20442;-62
2021/03/10 06:30:40;;;;;;;32.10;21.70;;;4.90;99.90;;;;;;5113356;28;20597;-61
2021/03/10 06:33:08;;;;;;;28.57;18.97;;;4.90;99.90;;;;;;5113726;28;20554;-62
2021/03/10 06:35:35;;;;;;;31.63;20.20;;;5.10;99.90;;;;;;5107924;28;20464;-62
2021/03/10 06:38:12;;;;;;;26.10;17.20;;;5.10;99.90;;;;;;5104403;28;20453;-61
2021/03/10 06:40:50;;;;;;;29.10;18.37;;;5.20;99.90;;;;;;5113602;28;20475;-62
2021/03/10 06:43:17;;;;;;;25.50;17.80;;;5.30;99.90;;;;;;5110600;28;20441;-62
2021/03/10 06:45:44;;;;;;;29.93;19.20;;;5.40;99.90;;;;;;5108433;28;20485;-62
2021/03/10 06:48:22;;;;;;;30.43;19.00;;;5.40;99.90;;;;;;5093526;28;20433;-64
2021/03/10 06:50:49;;;;;;;24.97;16.87;;;5.60;99.90;;;;;;5112530;27;20459;-63
2021/03/10 06:53:15;;;;;;;26.90;15.30;;;5.70;99.90;;;;;;5109182;27;20799;-61
2021/03/10 06:55:43;;;;;;;26.83;16.90;;;5.70;99.90;;;;;;5121933;27;20932;-63
2021/03/10 06:58:11;;;;;;;24.40;16.87;;;5.90;99.90;;;;;;5112088;28;20589;-63
2021/03/10 07:00:38;;;;;;;24.40;16.83;;;5.90;99.90;;;;;;5112248;27;20457;-62
2021/03/10 07:03:06;;;;;;;27.03;18.53;;;6.00;99.90;;;;;;5109605;27;20534;-63
2021/03/10 07:05:33;;;;;;;28.23;19.13;;;6.00;99.90;;;;;;5111172;27;20503;-61
2021/03/10 07:07:59;;;;;;;25.17;16.87;;;6.10;99.90;;;;;;5107069;27;20452;-65
2021/03/10 07:10:28;;;;;;;25.10;17.20;;;6.20;99.90;;;;;;5100731;27;20483;-65
2021/03/10 07:12:59;;;;;;;25.60;17.43;;;6.20;99.90;;;;;;5103415;27;21083;-64
2021/03/10 07:15:27;;;;;;;23.73;16.73;;;6.30;99.90;;;;;;5109338;27;20447;-63
2021/03/10 07:17:54;;;;;;;26.73;16.57;;;6.40;99.90;;;;;;5112422;27;20586;-62
2021/03/10 07:20:22;;;;;;;23.60;16.07;;;6.40;99.90;;;;;;5110834;27;20447;-62
2021/03/10 07:22:55;;;;;;;23.57;14.70;;;6.50;99.90;;;;;;5110971;27;20448;-62
2021/03/10 07:25:26;;;;;;;26.33;17.20;;;6.50;99.90;;;;;;5111271;27;20865;-62
2021/03/10 07:27:58;;;;;;;26.10;15.30;;;6.60;99.90;;;;;;5123265;27;20459;-64
2021/03/10 07:30:37;;;;;;;27.47;17.30;;;6.60;99.90;;;;;;5114729;27;20437;-62
2021/03/10 07:33:06;;;;;;;25.03;15.83;;;6.80;99.90;;;;;;5108378;27;20455;-62
2021/03/10 07:35:33;;;;;;;24.60;15.93;;;6.70;99.90;;;;;;5113037;27;20508;-62
2021/03/10 07:37:59;;;;;;;25.00;16.63;;;6.60;99.90;;;;;;5110958;27;20995;-62
2021/03/10 07:40:26;;;;;;;23.67;15.67;;;6.70;99.90;;;;;;5109079;28;20968;-62
2021/03/10 07:42:53;;;;;;;24.77;15.27;;;6.70;99.90;;;;;;5110339;28;20919;-65
2021/03/10 07:45:20;;;;;;;27.50;17.97;;;6.90;99.90;;;;;;5110867;28;20981;-62
2021/03/10 07:47:55;;;;;;;25.73;15.73;;;6.80;99.90;;;;;;5111263;28;20524;-63
2021/03/10 07:50:22;;;;;;;29.20;19.97;;;6.90;99.90;;;;;;5098725;27;20446;-63
2021/03/10 07:52:55;;;;;;;23.17;14.50;;;6.80;99.90;;;;;;5114166;27;20893;-62
2021/03/10 07:55:22;;;;;;;26.93;16.17;;;6.80;99.90;;;;;;5125471;27;20535;-63
2021/03/10 07:57:52;;;;;;;22.10;14.43;;;6.70;99.90;;;;;;5109444;28;20902;-62
2021/03/10 08:00:19;;;;;;;23.70;15.00;;;6.80;99.90;;;;;;5110069;28;20500;-62
2021/03/10 08:02:50;;;;;;;25.00;15.57;;;6.80;99.90;;;;;;5110340;28;20454;-63
2021/03/10 08:05:23;;;;;;;25.60;14.40;;;6.90;99.90;;;;;;5113010;28;20539;-62
2021/03/10 08:07:50;;;;;;;28.60;18.67;;;7.00;99.90;;;;;;5103530;28;20450;-65
2021/03/10 08:10:26;;;;;;;26.60;14.77;;;7.10;99.90;;;;;;5094149;27;20539;-62
2021/03/10 08:12:53;;;;;;;22.70;14.40;;;7.10;99.90;;;;;;5107847;28;20447;-64
2021/03/10 08:15:21;;;;;;;26.10;15.40;;;7.00;99.90;;;;;;5070257;28;20472;-64
2021/03/10 08:17:48;;;;;;;23.43;13.83;;;7.00;99.90;;;;;;5105591;28;20460;-62
2021/03/10 08:20:15;;;;;;;23.27;14.67;;;7.10;99.90;;;;;;5107823;28;20834;-66
2021/03/10 08:22:42;;;;;;;21.80;13.33;;;7.20;99.90;;;;;;5110756;27;20502;-62
2021/03/10 08:25:13;;;;;;;21.27;14.10;;;7.30;99.90;;;;;;5099193;28;20477;-62
2021/03/10 08:27:41;;;;;;;25.63;16.57;;;7.30;99.90;;;;;;5101966;28;20883;-63
2021/03/10 08:30:38;;;;;;;23.90;15.23;;;7.50;99.90;;;;;;5107620;28;20830;-63
2021/03/10 08:33:05;;;;;;;24.10;15.83;;;7.60;99.90;;;;;;5093212;27;20450;-62
2021/03/10 08:35:31;;;;;;;24.93;15.90;;;7.60;99.90;;;;;;5100578;27;20454;-62
2021/03/10 08:38:01;;;;;;;25.10;16.17;;;7.60;99.90;;;;;;5108800;28;20453;-62
2021/03/10 08:40:30;;;;;;;28.47;17.87;;;7.70;99.90;;;;;;5107900;28;20441;-62
2021/03/10 08:42:57;;;;;;;26.47;16.10;;;7.70;99.90;;;;;;5110735;28;20824;-63
2021/03/10 08:45:26;;;;;;;26.60;15.37;;;7.70;99.90;;;;;;5083027;28;20571;-65
2021/03/10 08:48:00;;;;;;;28.07;16.53;;;7.70;99.90;;;;;;5107648;28;20540;-62
2021/03/10 08:50:31;;;;;;;27.23;16.90;;;7.80;99.90;;;;;;5109727;28;20990;-61
2021/03/10 08:52:58;;;;;;;29.13;17.87;;;7.90;99.90;;;;;;5102028;28;20449;-62
2021/03/10 08:55:26;;;;;;;29.43;16.80;;;8.10;99.90;;;;;;5095142;28;20454;-63
2021/03/10 08:57:53;;;;;;;27.83;16.10;;;8.20;99.90;;;;;;5103487;28;20454;-62
2021/03/10 09:00:21;;;;;;;27.00;16.00;;;8.20;99.90;;;;;;5103399;28;20516;-62
2021/03/10 09:02:52;;;;;;;30.20;17.57;;;8.40;99.90;;;;;;5108485;28;20551;-63
2021/03/10 09:05:25;;;;;;;27.90;17.23;;;8.30;99.90;;;;;;5092817;28;20486;-66
2021/03/10 09:07:52;;;;;;;30.70;19.10;;;8.50;99.90;;;;;;5092684;28;20454;-63
2021/03/10 09:10:21;;;;;;;33.37;19.77;;;8.60;99.90;;;;;;5114355;28;20947;-62
2021/03/10 09:12:49;;;;;;;28.40;18.23;;;8.40;99.90;;;;;;5111290;28;20453;-65
2021/03/10 09:15:17;;;;;;;36.37;21.50;;;8.40;99.90;;;;;;5111260;28;20481;-66
2021/03/10 09:17:44;;;;;;;32.53;20.50;;;8.40;99.90;;;;;;5109104;28;20492;-65
2021/03/10 09:20:12;;;;;;;34.03;20.10;;;8.40;99.90;;;;;;5091665;28;20445;-64
2021/03/10 09:22:46;;;;;;;33.10;20.30;;;8.50;99.90;;;;;;5115882;28;21028;-65
2021/03/10 09:25:14;;;;;;;37.23;21.07;;;8.80;99.90;;;;;;5115447;28;20458;-63
2021/03/10 09:27:42;;;;;;;36.00;23.07;;;8.80;99.90;;;;;;5114750;28;20529;-63
2021/03/10 09:30:12;;;;;;;29.70;18.80;;;9.00;99.90;;;;;;5112126;28;20463;-66
2021/03/10 09:32:42;;;;;;;34.27;22.10;;;9.20;99.90;;;;;;5113275;28;20519;-63
2021/03/10 09:35:16;;;;;;;35.33;23.00;;;9.40;99.90;;;;;;5114475;28;20938;-63
2021/03/10 09:37:45;;;;;;;33.17;21.20;;;9.60;99.90;;;;;;5115082;28;20451;-65
2021/03/10 09:40:12;;;;;;;41.73;25.60;;;9.90;99.90;;;;;;5114700;28;20536;-65
2021/03/10 09:42:39;;;;;;;49.00;28.40;;;9.70;99.90;;;;;;5113952;28;20479;-63
2021/03/10 09:45:08;;;;;;;40.03;26.60;;;9.40;99.90;;;;;;5113960;28;20449;-65
2021/03/10 09:47:34;;;;;;;41.67;26.70;;;9.50;99.90;;;;;;5112407;28;20510;-65
2021/03/10 09:50:01;;;;;;;44.23;27.93;;;9.30;99.90;;;;;;5094815;28;20444;-65
2021/03/10 09:52:35;;;;;;;43.63;25.57;;;9.50;99.90;;;;;;5113132;28;20797;-63
2021/03/10 09:55:04;;;;;;;38.27;24.60;;;10.00;99.90;;;;;;5113287;28;20447;-65
2021/03/10 09:57:31;;;;;;;43.57;28.33;;;10.10;99.90;;;;;;5114450;28;20449;-65
2021/03/10 09:59:58;;;;;;;44.10;27.40;;;10.20;99.90;;;;;;5111285;28;20870;-63
2021/03/10 10:02:27;;;;;;;41.90;25.80;;;10.90;99.90;;;;;;5114886;28;20445;-64
2021/03/10 10:04:58;;;;;;;38.23;26.10;;;11.10;99.90;;;;;;5112856;28;20502;-65
2021/03/10 10:07:26;;;;;;;36.03;27.40;;;11.00;99.90;;;;;;5112790;28;20465;-65
2021/03/10 10:09:53;;;;;;;40.50;27.53;;;10.90;99.90;;;;;;5114318;28;20449;-66
2021/03/10 10:12:20;;;;;;;35.20;24.90;;;10.90;99.90;;;;;;5113424;28;20889;-64
2021/03/10 10:14:46;;;;;;;40.00;25.50;;;11.00;99.90;;;;;;5114266;28;20540;-63
2021/03/10 10:17:14;;;;;;;40.60;27.17;;;11.00;99.90;;;;;;5113012;28;20543;-66
2021/03/10 10:19:42;;;;;;;39.40;25.90;;;10.70;99.90;;;;;;5112236;28;20950;-65
2021/03/10 10:22:09;;;;;;;36.73;26.00;;;11.10;99.90;;;;;;5111864;28;20438;-65
2021/03/10 10:24:36;;;;;;;39.33;27.70;;;11.30;99.90;;;;;;5113018;28;20552;-65
2021/03/10 10:27:03;;;;;;;38.47;25.70;;;11.40;99.90;;;;;;5114475;28;20491;-65
2021/03/10 10:29:30;;;;;;;37.00;25.43;;;11.70;99.90;;;;;;5113695;28;21005;-64
2021/03/10 10:31:56;;;;;;;33.70;25.40;;;12.70;99.90;;;;;;5090131;28;20457;-65
2021/03/10 10:34:23;;;;;;;31.40;25.00;;;13.30;99.90;;;;;;5110528;28;20460;-65
2021/03/10 10:36:51;;;;;;;32.37;25.03;;;13.80;99.90;;;;;;5091877;28;20590;-67
2021/03/10 10:39:18;;;;;;;36.80;25.50;;;13.80;99.90;;;;;;5093279;28;20499;-65
2021/03/10 10:41:44;;;;;;;35.70;25.60;;;12.50;99.90;;;;;;5111656;28;20532;-66
2021/03/10 10:44:11;;;;;;;34.03;24.67;;;12.40;99.90;;;;;;5093213;28;20819;-64
2021/03/10 10:46:38;;;;;;;36.73;25.63;;;12.40;99.90;;;;;;5112790;28;20583;-67
2021/03/10 10:49:04;;;;;;;34.70;24.80;;;12.60;99.90;;;;;;5114171;28;20449;-65
2021/03/10 10:51:31;;;;;;;30.60;20.90;;;12.10;99.90;;;;;;5114541;28;20484;-63
2021/03/10 10:53:58;;;;;;;30.40;22.37;;;11.90;99.90;;;;;;5112570;28;20456;-63
2021/03/10 10:56:24;;;;;;;31.80;22.60;;;11.90;99.90;;;;;;5114148;28;20453;-64
2021/03/10 10:58:51;;;;;;;32.63;25.27;;;12.00;99.90;;;;;;5093575;28;20460;-65
2021/03/10 11:01:22;;;;;;;31.07;22.67;;;11.90;99.90;;;;;;5111664;28;20445;-64
2021/03/10 11:03:49;;;;;;;28.00;22.57;;;11.90;99.90;;;;;;5095284;28;20444;-65
2021/03/10 11:12:28;;;;;;;33.00;20.20;;;11.70;99.90;;;;;;5139485;22;20556;-65
2021/03/10 11:14:54;;;;;;;26.83;18.80;;;11.40;99.90;;;;;;5126307;27;20464;-64
2021/03/10 11:17:21;;;;;;;26.20;18.47;;;11.60;99.90;;;;;;5133072;27;20531;-65
2021/03/10 11:19:47;;;;;;;25.43;19.23;;;11.50;99.90;;;;;;5130820;27;20531;-64
2021/03/10 11:22:17;;;;;;;26.00;18.07;;;11.70;99.90;;;;;;5131425;27;20818;-65
2021/03/10 11:24:46;;;;;;;24.30;16.90;;;12.10;99.90;;;;;;5124113;27;20841;-65
2021/03/10 11:27:17;;;;;;;26.60;19.43;;;12.60;99.90;;;;;;5126249;27;20512;-64
2021/03/10 11:29:45;;;;;;;25.47;17.53;;;12.70;99.90;;;;;;5129153;27;20844;-63
2021/03/10 11:32:12;;;;;;;25.90;19.43;;;13.10;99.90;;;;;;5133192;27;20436;-63
2021/03/10 11:34:38;;;;;;;26.53;18.17;;;13.10;99.90;;;;;;5133314;27;20923;-65
2021/03/10 11:37:05;;;;;;;26.90;19.47;;;13.40;99.90;;;;;;5133056;27;20452;-64
2021/03/10 11:39:34;;;;;;;26.43;17.40;;;13.50;99.90;;;;;;5133239;27;20462;-65
2021/03/10 11:42:01;;;;;;;27.20;17.90;;;14.00;99.90;;;;;;5133622;27;20447;-65
2021/03/10 11:44:29;;;;;;;22.47;16.80;;;13.60;99.90;;;;;;5132704;27;20482;-66
2021/03/10 11:46:56;;;;;;;20.47;15.47;;;14.30;99.90;;;;;;5132945;27;20480;-66
2021/03/10 11:49:25;;;;;;;20.70;15.67;;;14.80;99.90;;;;;;5132862;27;20523;-65
2021/03/10 11:51:52;;;;;;;24.90;17.73;;;14.80;99.90;;;;;;5092271;27;20524;-66
2021/03/10 11:54:23;;;;;;;21.20;16.73;;;15.60;99.90;;;;;;5098985;27;20449;-65
2021/03/10 11:56:49;;;;;;;19.97;15.03;;;15.90;99.90;;;;;;5124382;27;20453;-64
2021/03/10 11:59:16;;;;;;;19.60;14.00;;;15.70;99.90;;;;;;5107919;27;20470;-66
2021/03/10 12:01:43;;;;;;;25.37;16.20;;;15.70;99.90;;;;;;5109492;27;20448;-66
2021/03/10 12:04:10;;;;;;;23.47;15.63;;;15.20;99.90;;;;;;5108568;27;20444;-64
2021/03/10 12:06:37;;;;;;;18.73;14.57;;;14.80;99.90;;;;;;5125149;27;20488;-64
2021/03/10 12:09:04;;;;;;;21.07;15.47;;;14.40;99.90;;;;;;5108010;27;20445;-66
2021/03/10 12:11:31;;;;;;;20.20;15.00;;;14.60;99.90;;;;;;5127820;27;20531;-64
2021/03/10 12:13:59;;;;;;;19.50;14.40;;;14.60;99.90;;;;;;5127771;27;20443;-65
2021/03/10 12:16:25;;;;;;;18.37;14.00;;;14.30;99.90;;;;;;5106174;28;20524;-63
2021/03/10 12:18:52;;;;;;;18.77;13.70;;;14.50;99.90;;;;;;5117095;27;20443;-66
2021/03/10 12:21:19;;;;;;;17.50;13.47;;;14.10;99.90;;;;;;5118627;27;20893;-64
2021/03/10 12:23:46;;;;;;;21.30;13.77;;;14.30;99.90;;;;;;5122506;27;20934;-65
2021/03/10 12:26:13;;;;;;;17.27;11.07;;;14.50;99.90;;;;;;5111406;28;20521;-66
2021/03/10 12:28:40;;;;;;;17.60;13.20;;;14.60;99.90;;;;;;5102918;27;20450;-64
2021/03/10 12:31:06;;;;;;;18.73;13.17;;;14.20;99.90;;;;;;5127795;27;20452;-66
2021/03/10 12:33:33;;;;;;;18.23;13.00;;;13.80;99.90;;;;;;5107353;27;20792;-67
2021/03/10 12:36:03;;;;;;;18.57;12.80;;;13.70;99.90;;;;;;5112003;27;20536;-66
2021/03/10 12:38:30;;;;;;;17.53;11.87;;;13.50;99.90;;;;;;5128785;27;20440;-65
2021/03/10 12:40:57;;;;;;;16.43;10.00;;;13.70;99.90;;;;;;5119732;27;20993;-65
2021/03/10 12:43:23;;;;;;;17.27;10.93;;;13.30;99.90;;;;;;5128437;27;20953;-64
2021/03/10 12:45:50;;;;;;;15.57;10.47;;;12.80;99.90;;;;;;5121612;27;20486;-65